sensor_id;sensor_type;location;lat;lon;timestamp;temperature;humidity
56256;DHT22;57229;51.432;-2.598;2023-12-07T00:00:17;8.20;99.90
56256;DHT22;57229;51.432;-2.598;2023-12-07T00:02:42;6.70;99.90
56256;DHT22;57229;51.432;-2.598;2023-12-07T00:05:08;6.80;99.90
56256;DHT22;57229;51.432;-2.598;2023-12-07T00:07:34;6.80;99.90
56256;DHT22;57229;51.432;-2.598;2023-12-07T00:10:00;6.80;99.90
56256;DHT22;57229;51.432;-2.598;2023-12-07T00:12:26;6.90;99.90
56256;DHT22;57229;51.432;-2.598;2023-12-07T00:14:51;7.50;99.90
56256;DHT22;57229;51.432;-2.598;2023-12-07T00:17:17;6.90;99.90
56256;DHT22;57229;51.432;-2.598;2023-12-07T00:19:50;6.90;99.90
56256;DHT22;57229;51.432;-2.598;2023-12-07T00:22:19;6.90;99.90
56256;DHT22;57229;51.432;-2.598;2023-12-07T00:24:45;6.90;99.90
56256;DHT22;57229;51.432;-2.598;2023-12-07T00:27:11;7.40;99.90
56256;DHT22;57229;51.432;-2.598;2023-12-07T00:29:39;7.00;99.90
56256;DHT22;57229;51.432;-2.598;2023-12-07T00:32:06;6.90;99.90
56256;DHT22;57229;51.432;-2.598;2023-12-07T00:34:31;8.60;99.90
56256;DHT22;57229;51.432;-2.598;2023-12-07T00:36:57;7.90;99.90
56256;DHT22;57229;51.432;-2.598;2023-12-07T00:39:28;6.90;99.90
56256;DHT22;57229;51.432;-2.598;2023-12-07T00:41:54;6.90;99.90
56256;DHT22;57229;51.432;-2.598;2023-12-07T00:44:19;6.90;99.90
56256;DHT22;57229;51.432;-2.598;2023-12-07T00:47:06;8.30;99.90
56256;DHT22;57229;51.432;-2.598;2023-12-07T00:49:32;6.90;99.90
56256;DHT22;57229;51.432;-2.598;2023-12-07T00:51:58;6.90;99.90
56256;DHT22;57229;51.432;-2.598;2023-12-07T00:54:24;6.90;99.90
56256;DHT22;57229;51.432;-2.598;2023-12-07T00:56:49;8.10;99.90
56256;DHT22;57229;51.432;-2.598;2023-12-07T00:59:15;6.90;99.90
56256;DHT22;57229;51.432;-2.598;2023-12-07T01:01:40;6.90;99.90
56256;DHT22;57229;51.432;-2.598;2023-12-07T01:04:06;7.70;99.90
56256;DHT22;57229;51.432;-2.598;2023-12-07T01:06:32;7.80;99.90
56256;DHT22;57229;51.432;-2.598;2023-12-07T01:08:57;6.90;99.90
56256;DHT22;57229;51.432;-2.598;2023-12-07T01:11:23;7.70;99.90
56256;DHT22;57229;51.432;-2.598;2023-12-07T01:13:52;6.90;99.90
56256;DHT22;57229;51.432;-2.598;2023-12-07T01:16:27;6.90;99.90
56256;DHT22;57229;51.432;-2.598;2023-12-07T01:18:56;6.90;99.90
56256;DHT22;57229;51.432;-2.598;2023-12-07T01:21:23;6.90;99.90
56256;DHT22;57229;51.432;-2.598;2023-12-07T01:23:54;6.90;99.90
56256;DHT22;57229;51.432;-2.598;2023-12-07T01:26:21;6.90;99.90
56256;DHT22;57229;51.432;-2.598;2023-12-07T01:29:00;6.90;99.90
56256;DHT22;57229;51.432;-2.598;2023-12-07T01:31:26;6.90;99.90
56256;DHT22;57229;51.432;-2.598;2023-12-07T01:33:52;7.00;99.90
56256;DHT22;57229;51.432;-2.598;2023-12-07T01:36:17;6.90;99.90
56256;DHT22;57229;51.432;-2.598;2023-12-07T01:38:43;6.90;99.90
56256;DHT22;57229;51.432;-2.598;2023-12-07T01:41:11;6.80;99.90
56256;DHT22;57229;51.432;-2.598;2023-12-07T01:43:37;7.20;99.90
56256;DHT22;57229;51.432;-2.598;2023-12-07T01:46:03;6.90;99.90
56256;DHT22;57229;51.432;-2.598;2023-12-07T01:49:16;6.90;99.90
56256;DHT22;57229;51.432;-2.598;2023-12-07T01:51:44;6.90;99.90
56256;DHT22;57229;51.432;-2.598;2023-12-07T01:54:10;8.40;99.90
56256;DHT22;57229;51.432;-2.598;2023-12-07T01:56:36;7.40;99.90
56256;DHT22;57229;51.432;-2.598;2023-12-07T01:59:01;8.60;99.90
56256;DHT22;57229;51.432;-2.598;2023-12-07T02:01:27;8.70;99.90
56256;DHT22;57229;51.432;-2.598;2023-12-07T02:03:53;7.80;99.90
56256;DHT22;57229;51.432;-2.598;2023-12-07T02:06:18;7.00;99.90
56256;DHT22;57229;51.432;-2.598;2023-12-07T02:08:45;7.00;99.90
56256;DHT22;57229;51.432;-2.598;2023-12-07T02:11:11;8.00;99.90
56256;DHT22;57229;51.432;-2.598;2023-12-07T02:13:37;7.10;99.90
56256;DHT22;57229;51.432;-2.598;2023-12-07T02:28:03;7.20;99.90
56256;DHT22;57229;51.432;-2.598;2023-12-07T02:30:29;7.20;99.90
56256;DHT22;57229;51.432;-2.598;2023-12-07T02:33:08;7.20;99.90
56256;DHT22;57229;51.432;-2.598;2023-12-07T02:35:36;7.30;99.90
56256;DHT22;57229;51.432;-2.598;2023-12-07T02:38:02;7.30;99.90
56256;DHT22;57229;51.432;-2.598;2023-12-07T02:40:28;7.60;99.90
56256;DHT22;57229;51.432;-2.598;2023-12-07T02:42:55;9.10;99.90
56256;DHT22;57229;51.432;-2.598;2023-12-07T02:48:39;7.50;99.90
56256;DHT22;57229;51.432;-2.598;2023-12-07T02:51:10;7.60;99.90
56256;DHT22;57229;51.432;-2.598;2023-12-07T02:53:36;7.60;99.90
56256;DHT22;57229;51.432;-2.598;2023-12-07T02:56:02;7.60;99.90
56256;DHT22;57229;51.432;-2.598;2023-12-07T02:58:27;7.70;99.90
56256;DHT22;57229;51.432;-2.598;2023-12-07T03:00:53;7.70;99.90
56256;DHT22;57229;51.432;-2.598;2023-12-07T03:03:18;7.90;99.90
56256;DHT22;57229;51.432;-2.598;2023-12-07T03:05:44;7.80;99.90
56256;DHT22;57229;51.432;-2.598;2023-12-07T03:08:10;7.80;99.90
56256;DHT22;57229;51.432;-2.598;2023-12-07T03:10:35;7.80;99.90
56256;DHT22;57229;51.432;-2.598;2023-12-07T03:16:38;7.90;99.90
56256;DHT22;57229;51.432;-2.598;2023-12-07T03:19:04;7.90;99.90
56256;DHT22;57229;51.432;-2.598;2023-12-07T03:21:30;8.10;99.90
56256;DHT22;57229;51.432;-2.598;2023-12-07T03:23:55;9.90;99.90
56256;DHT22;57229;51.432;-2.598;2023-12-07T03:26:21;8.00;99.90
56256;DHT22;57229;51.432;-2.598;2023-12-07T03:28:46;8.00;99.90
56256;DHT22;57229;51.432;-2.598;2023-12-07T03:31:12;9.00;99.90
56256;DHT22;57229;51.432;-2.598;2023-12-07T03:33:44;9.00;99.90
56256;DHT22;57229;51.432;-2.598;2023-12-07T03:36:11;8.40;99.90
56256;DHT22;57229;51.432;-2.598;2023-12-07T03:38:44;8.10;99.90
56256;DHT22;57229;51.432;-2.598;2023-12-07T03:41:11;8.10;99.90
56256;DHT22;57229;51.432;-2.598;2023-12-07T03:43:40;8.10;99.90
56256;DHT22;57229;51.432;-2.598;2023-12-07T03:46:09;8.10;99.90
56256;DHT22;57229;51.432;-2.598;2023-12-07T03:48:38;6.60;99.90
56256;DHT22;57229;51.432;-2.598;2023-12-07T03:51:04;8.10;99.90
56256;DHT22;57229;51.432;-2.598;2023-12-07T03:53:42;8.20;99.90
56256;DHT22;57229;51.432;-2.598;2023-12-07T03:56:08;8.10;99.90
56256;DHT22;57229;51.432;-2.598;2023-12-07T03:58:34;8.20;99.90
56256;DHT22;57229;51.432;-2.598;2023-12-07T04:01:00;8.80;99.90
56256;DHT22;57229;51.432;-2.598;2023-12-07T04:03:25;8.80;99.90
56256;DHT22;57229;51.432;-2.598;2023-12-07T04:05:51;8.30;99.90
56256;DHT22;57229;51.432;-2.598;2023-12-07T04:08:17;8.80;99.90
56256;DHT22;57229;51.432;-2.598;2023-12-07T04:10:42;8.20;99.90
56256;DHT22;57229;51.432;-2.598;2023-12-07T04:13:08;9.60;99.90
56256;DHT22;57229;51.432;-2.598;2023-12-07T04:15:34;8.20;99.90
56256;DHT22;57229;51.432;-2.598;2023-12-07T04:17:59;8.70;99.90
56256;DHT22;57229;51.432;-2.598;2023-12-07T04:20:25;9.30;99.90
56256;DHT22;57229;51.432;-2.598;2023-12-07T04:22:50;8.60;99.90
56256;DHT22;57229;51.432;-2.598;2023-12-07T04:25:16;9.00;99.90
56256;DHT22;57229;51.432;-2.598;2023-12-07T04:27:42;8.20;99.90
56256;DHT22;57229;51.432;-2.598;2023-12-07T04:30:28;8.60;99.90
56256;DHT22;57229;51.432;-2.598;2023-12-07T04:32:54;8.30;99.90
56256;DHT22;57229;51.432;-2.598;2023-12-07T04:35:20;9.40;99.90
56256;DHT22;57229;51.432;-2.598;2023-12-07T04:37:46;8.30;99.90
56256;DHT22;57229;51.432;-2.598;2023-12-07T04:40:12;8.30;99.90
56256;DHT22;57229;51.432;-2.598;2023-12-07T04:42:38;8.30;99.90
56256;DHT22;57229;51.432;-2.598;2023-12-07T04:45:05;9.10;99.90
56256;DHT22;57229;51.432;-2.598;2023-12-07T04:47:39;8.30;99.90
56256;DHT22;57229;51.432;-2.598;2023-12-07T04:50:05;8.30;99.90
56256;DHT22;57229;51.432;-2.598;2023-12-07T04:52:38;8.30;99.90
56256;DHT22;57229;51.432;-2.598;2023-12-07T04:55:10;8.30;99.90
56256;DHT22;57229;51.432;-2.598;2023-12-07T04:57:36;8.30;99.90
56256;DHT22;57229;51.432;-2.598;2023-12-07T05:00:05;8.30;99.90
56256;DHT22;57229;51.432;-2.598;2023-12-07T05:02:38;8.30;99.90
56256;DHT22;57229;51.432;-2.598;2023-12-07T05:05:03;9.00;99.90
56256;DHT22;57229;51.432;-2.598;2023-12-07T05:07:30;8.30;99.90
56256;DHT22;57229;51.432;-2.598;2023-12-07T05:09:56;8.40;99.90
56256;DHT22;57229;51.432;-2.598;2023-12-07T05:12:21;8.20;99.90
56256;DHT22;57229;51.432;-2.598;2023-12-07T05:14:47;8.20;99.90
56256;DHT22;57229;51.432;-2.598;2023-12-07T05:17:12;8.20;99.90
56256;DHT22;57229;51.432;-2.598;2023-12-07T05:19:45;8.20;99.90
56256;DHT22;57229;51.432;-2.598;2023-12-07T05:22:37;8.20;99.90
56256;DHT22;57229;51.432;-2.598;2023-12-07T05:25:20;8.30;99.90
56256;DHT22;57229;51.432;-2.598;2023-12-07T05:27:46;9.60;99.90
56256;DHT22;57229;51.432;-2.598;2023-12-07T05:30:12;8.30;99.90
56256;DHT22;57229;51.432;-2.598;2023-12-07T05:32:40;8.20;99.90
56256;DHT22;57229;51.432;-2.598;2023-12-07T05:35:07;9.40;99.90
56256;DHT22;57229;51.432;-2.598;2023-12-07T05:37:33;8.30;99.90
56256;DHT22;57229;51.432;-2.598;2023-12-07T05:39:59;8.40;99.90
56256;DHT22;57229;51.432;-2.598;2023-12-07T05:42:28;8.20;99.90
56256;DHT22;57229;51.432;-2.598;2023-12-07T05:44:59;8.20;99.90
56256;DHT22;57229;51.432;-2.598;2023-12-07T05:47:32;8.20;99.90
56256;DHT22;57229;51.432;-2.598;2023-12-07T05:49:58;8.20;99.90
56256;DHT22;57229;51.432;-2.598;2023-12-07T05:52:33;7.40;99.90
56256;DHT22;57229;51.432;-2.598;2023-12-07T05:55:19;8.20;99.90
56256;DHT22;57229;51.432;-2.598;2023-12-07T05:57:56;8.20;99.90
56256;DHT22;57229;51.432;-2.598;2023-12-07T06:00:21;8.20;99.90
56256;DHT22;57229;51.432;-2.598;2023-12-07T06:02:47;8.20;99.90
56256;DHT22;57229;51.432;-2.598;2023-12-07T06:05:13;8.20;99.90
56256;DHT22;57229;51.432;-2.598;2023-12-07T06:07:39;8.20;99.90
56256;DHT22;57229;51.432;-2.598;2023-12-07T06:10:06;8.20;99.90
56256;DHT22;57229;51.432;-2.598;2023-12-07T06:12:31;8.10;99.90
56256;DHT22;57229;51.432;-2.598;2023-12-07T06:15:06;8.80;99.90
56256;DHT22;57229;51.432;-2.598;2023-12-07T06:17:33;8.10;99.90
56256;DHT22;57229;51.432;-2.598;2023-12-07T06:19:59;7.90;99.90
56256;DHT22;57229;51.432;-2.598;2023-12-07T06:22:25;8.00;99.90
56256;DHT22;57229;51.432;-2.598;2023-12-07T06:24:51;8.20;99.90
56256;DHT22;57229;51.432;-2.598;2023-12-07T06:27:16;8.20;99.90
56256;DHT22;57229;51.432;-2.598;2023-12-07T06:29:43;9.80;99.90
56256;DHT22;57229;51.432;-2.598;2023-12-07T06:32:09;9.20;99.90
56256;DHT22;57229;51.432;-2.598;2023-12-07T06:34:43;8.00;99.90
56256;DHT22;57229;51.432;-2.598;2023-12-07T06:37:09;8.00;99.90
56256;DHT22;57229;51.432;-2.598;2023-12-07T06:39:36;8.10;99.90
56256;DHT22;57229;51.432;-2.598;2023-12-07T06:42:02;8.30;99.90
56256;DHT22;57229;51.432;-2.598;2023-12-07T06:44:27;8.10;99.90
56256;DHT22;57229;51.432;-2.598;2023-12-07T06:46:54;8.20;99.90
56256;DHT22;57229;51.432;-2.598;2023-12-07T06:49:19;8.20;99.90
56256;DHT22;57229;51.432;-2.598;2023-12-07T06:51:45;8.20;99.90
56256;DHT22;57229;51.432;-2.598;2023-12-07T06:54:10;8.50;99.90
56256;DHT22;57229;51.432;-2.598;2023-12-07T06:56:36;8.30;99.90
56256;DHT22;57229;51.432;-2.598;2023-12-07T06:59:01;8.20;99.90
56256;DHT22;57229;51.432;-2.598;2023-12-07T07:01:27;8.20;99.90
56256;DHT22;57229;51.432;-2.598;2023-12-07T07:04:12;8.20;99.90
56256;DHT22;57229;51.432;-2.598;2023-12-07T07:06:40;8.30;99.90
56256;DHT22;57229;51.432;-2.598;2023-12-07T07:09:06;8.30;99.90
56256;DHT22;57229;51.432;-2.598;2023-12-07T07:11:32;8.30;99.90
56256;DHT22;57229;51.432;-2.598;2023-12-07T07:13:57;8.40;99.90
56256;DHT22;57229;51.432;-2.598;2023-12-07T07:16:24;8.30;99.90
56256;DHT22;57229;51.432;-2.598;2023-12-07T07:18:50;8.40;99.90
56256;DHT22;57229;51.432;-2.598;2023-12-07T07:21:16;8.50;99.90
56256;DHT22;57229;51.432;-2.598;2023-12-07T07:23:42;8.40;99.90
56256;DHT22;57229;51.432;-2.598;2023-12-07T07:26:07;8.40;99.90
56256;DHT22;57229;51.432;-2.598;2023-12-07T07:28:36;8.40;99.90
56256;DHT22;57229;51.432;-2.598;2023-12-07T07:31:02;8.50;99.90
56256;DHT22;57229;51.432;-2.598;2023-12-07T07:33:28;8.50;99.90
56256;DHT22;57229;51.432;-2.598;2023-12-07T07:35:54;8.60;99.90
56256;DHT22;57229;51.432;-2.598;2023-12-07T07:38:20;8.50;99.90
56256;DHT22;57229;51.432;-2.598;2023-12-07T07:40:46;8.60;99.90
56256;DHT22;57229;51.432;-2.598;2023-12-07T07:43:19;9.00;99.90
56256;DHT22;57229;51.432;-2.598;2023-12-07T07:45:45;8.60;99.90
56256;DHT22;57229;51.432;-2.598;2023-12-07T07:48:11;8.60;99.90
56256;DHT22;57229;51.432;-2.598;2023-12-07T07:50:37;8.50;99.90
56256;DHT22;57229;51.432;-2.598;2023-12-07T07:53:03;8.60;99.90
56256;DHT22;57229;51.432;-2.598;2023-12-07T07:55:30;8.60;99.90
56256;DHT22;57229;51.432;-2.598;2023-12-07T07:57:56;9.20;99.90
56256;DHT22;57229;51.432;-2.598;2023-12-07T08:00:21;9.40;99.90
56256;DHT22;57229;51.432;-2.598;2023-12-07T08:02:50;8.60;99.90
56256;DHT22;57229;51.432;-2.598;2023-12-07T08:05:15;9.20;99.90
56256;DHT22;57229;51.432;-2.598;2023-12-07T08:07:41;9.60;99.90
56256;DHT22;57229;51.432;-2.598;2023-12-07T08:10:07;9.30;99.90
56256;DHT22;57229;51.432;-2.598;2023-12-07T08:12:34;8.50;99.90
56256;DHT22;57229;51.432;-2.598;2023-12-07T08:15:00;8.50;99.90
56256;DHT22;57229;51.432;-2.598;2023-12-07T08:17:26;8.50;99.90
56256;DHT22;57229;51.432;-2.598;2023-12-07T08:19:52;8.90;99.90
56256;DHT22;57229;51.432;-2.598;2023-12-07T08:22:18;9.00;99.90
56256;DHT22;57229;51.432;-2.598;2023-12-07T08:24:43;8.50;99.90
56256;DHT22;57229;51.432;-2.598;2023-12-07T08:27:09;10.10;99.90
56256;DHT22;57229;51.432;-2.598;2023-12-07T08:29:35;8.50;99.90
56256;DHT22;57229;51.432;-2.598;2023-12-07T08:32:00;10.10;99.90
56256;DHT22;57229;51.432;-2.598;2023-12-07T08:34:29;8.50;99.90
56256;DHT22;57229;51.432;-2.598;2023-12-07T08:36:58;8.50;99.90
56256;DHT22;57229;51.432;-2.598;2023-12-07T08:39:24;8.50;99.90
56256;DHT22;57229;51.432;-2.598;2023-12-07T08:41:50;8.50;99.90
56256;DHT22;57229;51.432;-2.598;2023-12-07T08:44:17;8.50;99.90
56256;DHT22;57229;51.432;-2.598;2023-12-07T08:46:43;8.50;99.90
56256;DHT22;57229;51.432;-2.598;2023-12-07T08:49:10;8.50;99.90
56256;DHT22;57229;51.432;-2.598;2023-12-07T08:51:36;10.00;99.90
56256;DHT22;57229;51.432;-2.598;2023-12-07T08:54:02;8.50;99.90
56256;DHT22;57229;51.432;-2.598;2023-12-07T08:56:27;8.50;99.90
56256;DHT22;57229;51.432;-2.598;2023-12-07T08:58:53;9.20;99.90
56256;DHT22;57229;51.432;-2.598;2023-12-07T09:01:19;9.20;99.90
56256;DHT22;57229;51.432;-2.598;2023-12-07T09:03:44;8.50;99.90
56256;DHT22;57229;51.432;-2.598;2023-12-07T09:06:10;9.10;99.90
56256;DHT22;57229;51.432;-2.598;2023-12-07T09:08:36;9.10;99.90
56256;DHT22;57229;51.432;-2.598;2023-12-07T09:11:02;8.60;99.90
56256;DHT22;57229;51.432;-2.598;2023-12-07T09:13:29;8.60;99.90
56256;DHT22;57229;51.432;-2.598;2023-12-07T09:15:54;10.20;99.90
56256;DHT22;57229;51.432;-2.598;2023-12-07T09:18:20;8.60;99.90
56256;DHT22;57229;51.432;-2.598;2023-12-07T09:20:46;8.90;99.90
56256;DHT22;57229;51.432;-2.598;2023-12-07T09:23:12;8.70;99.90
56256;DHT22;57229;51.432;-2.598;2023-12-07T09:25:38;9.60;99.90
56256;DHT22;57229;51.432;-2.598;2023-12-07T09:28:04;10.30;99.90
56256;DHT22;57229;51.432;-2.598;2023-12-07T09:30:30;8.80;99.90
56256;DHT22;57229;51.432;-2.598;2023-12-07T09:32:55;8.80;99.90
56256;DHT22;57229;51.432;-2.598;2023-12-07T09:35:21;10.00;99.90
56256;DHT22;57229;51.432;-2.598;2023-12-07T09:37:48;9.60;99.90
56256;DHT22;57229;51.432;-2.598;2023-12-07T09:40:23;8.80;99.90
56256;DHT22;57229;51.432;-2.598;2023-12-07T09:42:51;8.80;99.90
56256;DHT22;57229;51.432;-2.598;2023-12-07T09:45:18;9.30;99.90
56256;DHT22;57229;51.432;-2.598;2023-12-07T09:47:52;8.90;99.90
56256;DHT22;57229;51.432;-2.598;2023-12-07T09:50:20;10.90;99.90
56256;DHT22;57229;51.432;-2.598;2023-12-07T09:52:52;8.70;99.90
56256;DHT22;57229;51.432;-2.598;2023-12-07T09:55:18;8.70;99.90
56256;DHT22;57229;51.432;-2.598;2023-12-07T09:57:46;8.70;99.90
56256;DHT22;57229;51.432;-2.598;2023-12-07T10:00:12;8.70;99.90
56256;DHT22;57229;51.432;-2.598;2023-12-07T10:02:41;8.60;99.90
56256;DHT22;57229;51.432;-2.598;2023-12-07T10:05:11;8.90;99.90
56256;DHT22;57229;51.432;-2.598;2023-12-07T10:07:42;8.50;99.90
56256;DHT22;57229;51.432;-2.598;2023-12-07T10:10:09;8.50;99.90
56256;DHT22;57229;51.432;-2.598;2023-12-07T10:12:50;8.70;99.90
56256;DHT22;57229;51.432;-2.598;2023-12-07T10:15:17;8.40;99.90
56256;DHT22;57229;51.432;-2.598;2023-12-07T10:20:20;8.80;99.90
56256;DHT22;57229;51.432;-2.598;2023-12-07T10:23:02;8.40;99.90
56256;DHT22;57229;51.432;-2.598;2023-12-07T10:25:30;8.40;99.90
56256;DHT22;57229;51.432;-2.598;2023-12-07T10:27:56;9.90;99.90
56256;DHT22;57229;51.432;-2.598;2023-12-07T10:30:22;8.40;99.90
56256;DHT22;57229;51.432;-2.598;2023-12-07T10:32:51;8.30;99.90
56256;DHT22;57229;51.432;-2.598;2023-12-07T11:34:52;8.30;99.90
56256;DHT22;57229;51.432;-2.598;2023-12-07T11:37:19;8.30;99.90
56256;DHT22;57229;51.432;-2.598;2023-12-07T11:39:45;8.30;99.90
56256;DHT22;57229;51.432;-2.598;2023-12-07T11:42:14;8.30;99.90
56256;DHT22;57229;51.432;-2.598;2023-12-07T11:44:41;8.30;99.90
56256;DHT22;57229;51.432;-2.598;2023-12-07T11:47:08;8.40;99.90
56256;DHT22;57229;51.432;-2.598;2023-12-07T11:49:35;9.10;99.90
56256;DHT22;57229;51.432;-2.598;2023-12-07T11:52:01;8.30;99.90
56256;DHT22;57229;51.432;-2.598;2023-12-07T11:54:37;8.00;99.90
56256;DHT22;57229;51.432;-2.598;2023-12-07T11:57:03;8.30;99.90
56256;DHT22;57229;51.432;-2.598;2023-12-07T11:59:29;8.30;99.90
56256;DHT22;57229;51.432;-2.598;2023-12-07T12:01:55;8.30;99.90
56256;DHT22;57229;51.432;-2.598;2023-12-07T12:04:21;8.30;99.90
56256;DHT22;57229;51.432;-2.598;2023-12-07T12:06:47;9.50;99.90
56256;DHT22;57229;51.432;-2.598;2023-12-07T12:09:15;9.90;99.90
56256;DHT22;57229;51.432;-2.598;2023-12-07T12:11:49;8.40;99.90
56256;DHT22;57229;51.432;-2.598;2023-12-07T12:14:16;9.30;99.90
56256;DHT22;57229;51.432;-2.598;2023-12-07T12:16:46;8.40;99.90
56256;DHT22;57229;51.432;-2.598;2023-12-07T12:19:12;8.40;99.90
56256;DHT22;57229;51.432;-2.598;2023-12-07T12:21:38;8.40;99.90
56256;DHT22;57229;51.432;-2.598;2023-12-07T12:24:10;8.90;99.90
56256;DHT22;57229;51.432;-2.598;2023-12-07T12:26:38;9.20;99.90
56256;DHT22;57229;51.432;-2.598;2023-12-07T12:29:05;8.50;99.90
56256;DHT22;57229;51.432;-2.598;2023-12-07T12:31:31;8.60;99.90
56256;DHT22;57229;51.432;-2.598;2023-12-07T12:33:57;8.40;99.90
56256;DHT22;57229;51.432;-2.598;2023-12-07T12:36:23;8.70;99.90
56256;DHT22;57229;51.432;-2.598;2023-12-07T12:38:52;8.40;99.90
56256;DHT22;57229;51.432;-2.598;2023-12-07T12:41:19;8.40;99.90
56256;DHT22;57229;51.432;-2.598;2023-12-07T12:43:45;8.90;99.90
56256;DHT22;57229;51.432;-2.598;2023-12-07T12:46:12;8.40;99.90
56256;DHT22;57229;51.432;-2.598;2023-12-07T12:49:00;8.40;99.90
56256;DHT22;57229;51.432;-2.598;2023-12-07T12:51:27;8.40;99.90
56256;DHT22;57229;51.432;-2.598;2023-12-07T12:53:54;9.90;99.90
56256;DHT22;57229;51.432;-2.598;2023-12-07T12:56:20;8.40;99.90
56256;DHT22;57229;51.432;-2.598;2023-12-07T12:58:50;8.40;99.90
56256;DHT22;57229;51.432;-2.598;2023-12-07T13:01:17;8.40;99.90
56256;DHT22;57229;51.432;-2.598;2023-12-07T13:03:44;8.40;99.90
56256;DHT22;57229;51.432;-2.598;2023-12-07T13:06:11;8.40;99.90
56256;DHT22;57229;51.432;-2.598;2023-12-07T13:08:37;8.40;99.90
56256;DHT22;57229;51.432;-2.598;2023-12-07T13:11:03;8.40;99.90
56256;DHT22;57229;51.432;-2.598;2023-12-07T13:13:29;8.40;99.90
56256;DHT22;57229;51.432;-2.598;2023-12-07T13:15:55;8.40;99.90
56256;DHT22;57229;51.432;-2.598;2023-12-07T13:18:20;8.40;99.90
56256;DHT22;57229;51.432;-2.598;2023-12-07T13:20:46;8.50;99.90
56256;DHT22;57229;51.432;-2.598;2023-12-07T13:23:12;8.60;99.90
56256;DHT22;57229;51.432;-2.598;2023-12-07T13:25:37;8.60;99.90
56256;DHT22;57229;51.432;-2.598;2023-12-07T13:28:03;8.40;99.90
56256;DHT22;57229;51.432;-2.598;2023-12-07T13:30:29;7.50;99.90
56256;DHT22;57229;51.432;-2.598;2023-12-07T13:32:59;8.40;99.90
56256;DHT22;57229;51.432;-2.598;2023-12-07T13:35:25;8.40;99.90
56256;DHT22;57229;51.432;-2.598;2023-12-07T13:37:50;8.50;99.90
56256;DHT22;57229;51.432;-2.598;2023-12-07T13:40:16;8.40;99.90
56256;DHT22;57229;51.432;-2.598;2023-12-07T13:42:42;8.40;99.90
56256;DHT22;57229;51.432;-2.598;2023-12-07T13:45:08;8.40;99.90
56256;DHT22;57229;51.432;-2.598;2023-12-07T13:47:34;8.40;99.90
56256;DHT22;57229;51.432;-2.598;2023-12-07T13:50:02;8.50;99.90
56256;DHT22;57229;51.432;-2.598;2023-12-07T13:52:29;8.40;99.90
56256;DHT22;57229;51.432;-2.598;2023-12-07T13:54:56;8.50;99.90
56256;DHT22;57229;51.432;-2.598;2023-12-07T13:57:22;8.40;99.90
56256;DHT22;57229;51.432;-2.598;2023-12-07T13:59:54;8.40;99.90
56256;DHT22;57229;51.432;-2.598;2023-12-07T14:02:20;8.40;99.90
56256;DHT22;57229;51.432;-2.598;2023-12-07T14:04:46;8.40;99.90
56256;DHT22;57229;51.432;-2.598;2023-12-07T14:07:19;8.60;99.90
56256;DHT22;57229;51.432;-2.598;2023-12-07T14:09:47;8.60;99.90
56256;DHT22;57229;51.432;-2.598;2023-12-07T14:12:13;8.40;99.90
56256;DHT22;57229;51.432;-2.598;2023-12-07T14:14:44;8.40;99.90
56256;DHT22;57229;51.432;-2.598;2023-12-07T14:17:14;8.40;99.90
56256;DHT22;57229;51.432;-2.598;2023-12-07T14:19:40;8.40;99.90
56256;DHT22;57229;51.432;-2.598;2023-12-07T14:22:06;8.50;99.90
56256;DHT22;57229;51.432;-2.598;2023-12-07T14:24:35;8.50;99.90
56256;DHT22;57229;51.432;-2.598;2023-12-07T14:27:02;9.50;99.90
56256;DHT22;57229;51.432;-2.598;2023-12-07T14:29:31;9.20;99.90
56256;DHT22;57229;51.432;-2.598;2023-12-07T14:31:58;8.40;99.90
56256;DHT22;57229;51.432;-2.598;2023-12-07T14:34:24;7.50;99.90
56256;DHT22;57229;51.432;-2.598;2023-12-07T14:36:52;8.60;99.90
56256;DHT22;57229;51.432;-2.598;2023-12-07T14:39:20;8.50;99.90
56256;DHT22;57229;51.432;-2.598;2023-12-07T14:41:47;8.40;99.90
56256;DHT22;57229;51.432;-2.598;2023-12-07T14:44:16;8.50;99.90
56256;DHT22;57229;51.432;-2.598;2023-12-07T14:46:46;8.50;99.90
56256;DHT22;57229;51.432;-2.598;2023-12-07T14:49:12;9.00;99.90
56256;DHT22;57229;51.432;-2.598;2023-12-07T14:51:42;8.70;99.90
56256;DHT22;57229;51.432;-2.598;2023-12-07T14:54:08;8.50;99.90
56256;DHT22;57229;51.432;-2.598;2023-12-07T14:56:39;8.50;99.90
56256;DHT22;57229;51.432;-2.598;2023-12-07T14:59:06;8.50;99.90
56256;DHT22;57229;51.432;-2.598;2023-12-07T15:01:32;8.80;99.90
56256;DHT22;57229;51.432;-2.598;2023-12-07T15:03:58;10.00;99.90
56256;DHT22;57229;51.432;-2.598;2023-12-07T15:06:25;8.50;99.90
56256;DHT22;57229;51.432;-2.598;2023-12-07T15:08:51;8.70;99.90
56256;DHT22;57229;51.432;-2.598;2023-12-07T15:11:17;8.70;99.90
56256;DHT22;57229;51.432;-2.598;2023-12-07T15:13:43;8.80;99.90
56256;DHT22;57229;51.432;-2.598;2023-12-07T15:16:09;8.50;99.90
56256;DHT22;57229;51.432;-2.598;2023-12-07T15:18:34;8.60;99.90
56256;DHT22;57229;51.432;-2.598;2023-12-07T15:21:04;8.60;99.90
56256;DHT22;57229;51.432;-2.598;2023-12-07T15:23:30;8.50;99.90
56256;DHT22;57229;51.432;-2.598;2023-12-07T15:25:59;9.30;99.90
56256;DHT22;57229;51.432;-2.598;2023-12-07T15:28:25;9.20;99.90
56256;DHT22;57229;51.432;-2.598;2023-12-07T15:30:50;9.30;99.90
56256;DHT22;57229;51.432;-2.598;2023-12-07T15:33:16;8.60;99.90
56256;DHT22;57229;51.432;-2.598;2023-12-07T15:35:42;9.10;99.90
56256;DHT22;57229;51.432;-2.598;2023-12-07T15:38:08;8.70;99.90
56256;DHT22;57229;51.432;-2.598;2023-12-07T15:40:39;8.70;99.90
56256;DHT22;57229;51.432;-2.598;2023-12-07T15:43:05;8.70;99.90
56256;DHT22;57229;51.432;-2.598;2023-12-07T15:45:31;9.40;99.90
56256;DHT22;57229;51.432;-2.598;2023-12-07T15:47:56;8.70;99.90
56256;DHT22;57229;51.432;-2.598;2023-12-07T15:50:22;8.70;99.90
56256;DHT22;57229;51.432;-2.598;2023-12-07T15:52:48;8.70;99.90
56256;DHT22;57229;51.432;-2.598;2023-12-07T15:55:13;9.00;99.90
56256;DHT22;57229;51.432;-2.598;2023-12-07T15:57:41;8.70;99.90
56256;DHT22;57229;51.432;-2.598;2023-12-07T16:00:07;8.70;99.90
56256;DHT22;57229;51.432;-2.598;2023-12-07T16:02:33;8.70;99.90
56256;DHT22;57229;51.432;-2.598;2023-12-07T16:04:58;9.50;99.90
56256;DHT22;57229;51.432;-2.598;2023-12-07T16:07:24;8.80;99.90
56256;DHT22;57229;51.432;-2.598;2023-12-07T16:09:50;8.70;99.90
56256;DHT22;57229;51.432;-2.598;2023-12-07T16:12:16;9.40;99.90
56256;DHT22;57229;51.432;-2.598;2023-12-07T16:14:41;8.90;99.90
56256;DHT22;57229;51.432;-2.598;2023-12-07T16:17:07;8.70;99.90
56256;DHT22;57229;51.432;-2.598;2023-12-07T16:19:33;8.90;99.90
56256;DHT22;57229;51.432;-2.598;2023-12-07T16:21:59;8.80;99.90
56256;DHT22;57229;51.432;-2.598;2023-12-07T16:24:25;8.80;99.90
56256;DHT22;57229;51.432;-2.598;2023-12-07T16:26:50;9.00;99.90
56256;DHT22;57229;51.432;-2.598;2023-12-07T16:29:17;8.80;99.90
56256;DHT22;57229;51.432;-2.598;2023-12-07T16:31:45;8.90;99.90
